Time,TemperatureF,DewpointF,PressureIn,WindDirection,WindDirectionDegrees,WindSpeedMPH,WindSpeedGustMPH,Humidity,HourlyPrecipIn,Conditions,Clouds,dailyrainin,SoftwareType,DateUTC
2013-06-21 00:01:00,77.4,70.3,30.09,NE,45,0.0,1.0,79,0.00,,,0.00,meteohub,2013-06-21 04:01:00,
2013-06-21 00:02:00,77.4,70.3,30.09,NE,45,0.0,1.0,79,0.00,,,0.00,meteohub,2013-06-21 04:02:00,
2013-06-21 00:03:00,77.4,70.3,30.09,NE,45,0.0,1.0,79,0.00,,,0.00,meteohub,2013-06-21 04:03:00,
2013-06-21 00:06:00,77.4,70.3,30.09,NE,45,0.0,0.0,79,0.00,,,0.00,meteohub,2013-06-21 04:06:00,
2013-06-21 00:11:00,77.0,70.3,30.09,North,0,2.0,2.0,80,0.00,,,0.00,meteohub,2013-06-21 04:11:00,
2013-06-21 00:16:00,77.0,70.7,30.09,NE,45,1.0,2.0,81,0.00,,,0.00,meteohub,2013-06-21 04:16:00,
2013-06-21 00:21:00,77.0,70.7,30.09,North,0,2.0,2.0,81,0.00,,,0.00,meteohub,2013-06-21 04:21:00,
2013-06-21 00:26:00,77.2,70.9,30.09,North,0,1.0,2.0,81,0.00,,,0.00,meteohub,2013-06-21 04:26:00,
2013-06-21 00:31:00,77.2,70.9,30.09,North,0,0.0,2.0,81,0.00,,,0.00,meteohub,2013-06-21 04:31:00,
2013-06-21 00:36:00,77.2,71.2,30.09,NE,45,2.0,2.0,82,0.00,,,0.00,meteohub,2013-06-21 04:36:00,
2013-06-21 00:41:00,77.2,71.2,30.09,North,0,2.0,2.0,82,0.00,,,0.00,meteohub,2013-06-21 04:41:00,
2013-06-21 00:47:00,77.2,70.9,30.09,North,0,2.0,2.0,81,0.00,,,0.00,meteohub,2013-06-21 04:47:00,
2013-06-21 00:52:00,77.4,71.4,30.09,North,0,2.0,3.0,82,0.00,,,0.00,meteohub,2013-06-21 04:52:00,
2013-06-21 00:57:00,77.2,70.9,30.09,North,0,1.0,3.0,81,0.00,,,0.00,meteohub,2013-06-21 04:57:00,
2013-06-21 01:02:00,77.2,71.2,30.09,North,0,2.0,2.0,82,0.00,,,0.00,meteohub,2013-06-21 05:02:00,
2013-06-21 01:07:00,77.2,71.2,30.09,North,0,2.0,2.0,82,0.00,,,0.00,meteohub,2013-06-21 05:07:00,
2013-06-21 01:12:00,77.2,71.2,30.09,North,0,1.0,2.0,82,0.00,,,0.00,meteohub,2013-06-21 05:12:00,
2013-06-21 01:17:00,77.0,71.4,30.09,North,0,2.0,2.0,83,0.00,,,0.00,meteohub,2013-06-21 05:17:00,
2013-06-21 01:22:00,77.0,71.4,30.09,North,0,0.0,2.0,83,0.00,,,0.00,meteohub,2013-06-21 05:22:00,
2013-06-21 01:27:00,76.8,71.2,30.08,North,0,0.0,2.0,83,0.00,,,0.00,meteohub,2013-06-21 05:27:00,
2013-06-21 01:32:00,76.8,71.6,30.08,NE,45,0.0,2.0,84,0.00,,,0.00,meteohub,2013-06-21 05:32:00,
2013-06-21 01:37:00,76.6,71.4,30.08,North,0,1.0,1.0,84,0.00,,,0.00,meteohub,2013-06-21 05:37:00,
2013-06-21 01:42:00,76.6,71.8,30.08,North,0,1.0,1.0,85,0.00,,,0.00,meteohub,2013-06-21 05:42:00,
2013-06-21 01:47:00,76.8,72.0,30.08,North,0,2.0,2.0,85,0.00,,,0.00,meteohub,2013-06-21 05:47:00,
2013-06-21 01:52:00,76.8,72.0,30.08,North,0,2.0,2.0,85,0.00,,,0.00,meteohub,2013-06-21 05:52:00,
2013-06-21 01:57:00,77.0,72.1,30.08,North,0,2.0,3.0,85,0.00,,,0.00,meteohub,2013-06-21 05:57:00,
2013-06-21 02:02:00,77.0,72.1,30.08,North,0,2.0,4.0,85,0.00,,,0.00,meteohub,2013-06-21 06:02:00,
2013-06-21 02:07:00,77.0,72.1,30.08,North,0,2.0,4.0,85,0.00,,,0.00,meteohub,2013-06-21 06:07:00,
2013-06-21 02:12:00,77.0,72.1,30.09,NE,45,1.0,3.0,85,0.00,,,0.00,meteohub,2013-06-21 06:12:00,
2013-06-21 02:17:00,77.0,72.1,30.08,NE,45,2.0,6.0,85,0.00,,,0.00,meteohub,2013-06-21 06:17:00,
2013-06-21 02:22:00,77.0,72.1,30.08,WNW,293,5.0,6.0,85,0.00,,,0.00,meteohub,2013-06-21 06:22:00,
2013-06-21 02:27:00,77.0,72.1,30.08,North,0,2.0,6.0,85,0.00,,,0.00,meteohub,2013-06-21 06:27:00,
2013-06-21 02:32:00,77.0,72.1,30.08,NW,315,2.0,6.0,85,0.00,,,0.00,meteohub,2013-06-21 06:32:00,
2013-06-21 02:37:00,76.8,72.0,30.07,North,0,3.0,6.0,85,0.00,,,0.00,meteohub,2013-06-21 06:37:00,
2013-06-21 02:42:00,76.8,72.0,30.07,NE,45,2.0,4.0,85,0.00,,,0.00,meteohub,2013-06-21 06:42:00,
2013-06-21 02:47:00,77.0,72.1,30.07,North,0,1.0,4.0,85,0.00,,,0.00,meteohub,2013-06-21 06:47:00,
2013-06-21 02:52:00,76.8,72.0,30.07,North,0,2.0,4.0,85,0.00,,,0.00,meteohub,2013-06-21 06:52:00,
2013-06-21 02:57:00,76.6,71.8,30.07,North,0,2.0,4.0,85,0.00,,,0.00,meteohub,2013-06-21 06:57:00,
2013-06-21 03:02:00,76.6,71.8,30.07,North,0,2.0,4.0,85,0.00,,,0.00,meteohub,2013-06-21 07:02:00,
2013-06-21 03:07:00,76.6,71.8,30.07,North,0,2.0,3.0,85,0.00,,,0.00,meteohub,2013-06-21 07:07:00,
2013-06-21 03:12:00,76.5,71.6,30.07,North,0,2.0,3.0,85,0.00,,,0.00,meteohub,2013-06-21 07:12:00,
2013-06-21 03:17:00,76.3,71.4,30.07,NE,45,2.0,4.0,85,0.00,,,0.00,meteohub,2013-06-21 07:17:00,
2013-06-21 03:22:00,76.3,71.8,30.07,NE,45,2.0,4.0,86,0.00,,,0.00,meteohub,2013-06-21 07:22:00,
2013-06-21 03:27:00,76.3,71.4,30.06,North,0,2.0,4.0,85,0.00,,,0.00,meteohub,2013-06-21 07:27:00,
2013-06-21 03:32:00,76.1,71.2,30.06,NE,45,1.0,2.0,85,0.00,,,0.00,meteohub,2013-06-21 07:32:00,
2013-06-21 03:37:00,75.9,71.1,30.06,North,0,0.0,2.0,85,0.00,,,0.00,meteohub,2013-06-21 07:37:00,
2013-06-21 03:42:00,75.9,71.4,30.06,North,0,1.0,2.0,86,0.00,,,0.00,meteohub,2013-06-21 07:42:00,
2013-06-21 03:47:00,75.7,71.2,30.06,North,0,1.0,2.0,86,0.00,,,0.00,meteohub,2013-06-21 07:47:00,
2013-06-21 03:52:00,75.7,71.2,30.06,North,0,0.0,2.0,86,0.00,,,0.00,meteohub,2013-06-21 07:52:00,
2013-06-21 03:57:00,75.6,71.1,30.06,North,0,1.0,2.0,86,0.00,,,0.00,meteohub,2013-06-21 07:57:00,
2013-06-21 04:02:00,75.6,71.1,30.06,North,0,1.0,2.0,86,0.00,,,0.00,meteohub,2013-06-21 08:02:00,
2013-06-21 04:07:00,75.6,71.1,30.05,North,0,1.0,1.0,86,0.00,,,0.00,meteohub,2013-06-21 08:07:00,
2013-06-21 04:12:00,75.2,71.1,30.06,East,90,0.0,1.0,87,0.00,,,0.00,meteohub,2013-06-21 08:12:00,
2013-06-21 04:17:00,75.2,71.4,30.06,NE,45,1.0,1.0,88,0.00,,,0.00,meteohub,2013-06-21 08:17:00,
2013-06-21 04:22:00,75.2,71.4,30.06,NE,45,0.0,1.0,88,0.00,,,0.00,meteohub,2013-06-21 08:22:00,
2013-06-21 04:27:00,75.0,71.2,30.06,North,0,1.0,1.0,88,0.00,,,0.00,meteohub,2013-06-21 08:27:00,
2013-06-21 04:32:00,75.0,71.2,30.06,North,0,0.0,1.0,88,0.00,,,0.00,meteohub,2013-06-21 08:32:00,
2013-06-21 04:37:00,75.0,71.2,30.05,North,0,2.0,2.0,88,0.00,,,0.00,meteohub,2013-06-21 08:37:00,
2013-06-21 04:42:00,75.0,71.6,30.05,North,0,1.0,2.0,89,0.00,,,0.00,meteohub,2013-06-21 08:42:00,
2013-06-21 04:47:00,75.0,71.6,30.05,North,0,2.0,2.0,89,0.00,,,0.00,meteohub,2013-06-21 08:47:00,
2013-06-21 04:52:00,75.0,71.6,30.05,North,0,0.0,2.0,89,0.00,,,0.00,meteohub,2013-06-21 08:52:00,
2013-06-21 04:57:00,75.0,71.6,30.05,North,0,0.0,2.0,89,0.00,,,0.00,meteohub,2013-06-21 08:57:00,
2013-06-21 05:02:00,74.8,71.4,30.05,North,0,1.0,2.0,89,0.00,,,0.00,meteohub,2013-06-21 09:02:00,
2013-06-21 05:07:00,74.8,71.4,30.05,North,0,1.0,1.0,89,0.00,,,0.00,meteohub,2013-06-21 09:07:00,
2013-06-21 05:12:00,74.8,71.4,30.05,North,0,2.0,2.0,89,0.00,,,0.00,meteohub,2013-06-21 09:12:00,
2013-06-21 05:17:00,74.8,71.4,30.06,NW,315,0.0,2.0,89,0.00,,,0.00,meteohub,2013-06-21 09:17:00,
2013-06-21 05:22:00,74.7,71.2,30.05,NW,315,0.0,2.0,89,0.00,,,0.00,meteohub,2013-06-21 09:22:00,
2013-06-21 05:27:00,74.7,71.2,30.05,NW,315,0.0,2.0,89,0.00,,,0.00,meteohub,2013-06-21 09:27:00,
2013-06-21 05:32:00,74.5,71.4,30.05,West,270,0.0,1.0,90,0.00,,,0.00,meteohub,2013-06-21 09:32:00,
2013-06-21 05:37:00,74.5,71.4,30.05,West,270,0.0,0.0,90,0.00,,,0.00,meteohub,2013-06-21 09:37:00,
2013-06-21 05:42:00,74.5,71.4,30.05,North,0,2.0,2.0,90,0.00,,,0.00,meteohub,2013-06-21 09:42:00,
2013-06-21 05:47:00,74.5,71.4,30.05,North,0,1.0,2.0,90,0.00,,,0.00,meteohub,2013-06-21 09:47:00,
2013-06-21 17:27:00,90.7,70.7,30.07,SE,135,8.0,-999.0,52,-99.99,,,0.00,meteohub,2013-06-21 21:27:00,
2013-06-21 17:28:00,90.7,70.0,30.07,SE,135,6.0,-999.0,51,-99.99,,,0.00,meteohub,2013-06-21 21:28:00,
2013-06-21 17:29:00,90.5,68.2,30.07,East,90,8.0,-999.0,48,-99.99,,,0.00,meteohub,2013-06-21 21:29:00,
2013-06-21 17:30:00,90.3,68.5,30.07,SE,135,7.0,-999.0,49,-99.99,,,0.00,meteohub,2013-06-21 21:30:00,
2013-06-21 17:31:00,90.1,68.9,30.07,SE,135,8.0,-999.0,50,-99.99,,,0.00,meteohub,2013-06-21 21:31:00,
2013-06-21 17:36:00,90.3,70.3,30.07,SW,225,4.0,8.0,52,0.00,,,0.00,meteohub,2013-06-21 21:36:00,
2013-06-21 17:41:00,91.0,69.8,30.07,East,90,4.0,8.0,50,0.00,,,0.00,meteohub,2013-06-21 21:41:00,
2013-06-21 17:47:00,91.8,69.8,30.08,NE,45,4.0,8.0,49,0.00,,,0.00,meteohub,2013-06-21 21:47:00,
2013-06-21 17:52:00,91.9,70.0,30.08,SW,225,4.0,7.0,49,0.00,,,0.00,meteohub,2013-06-21 21:52:00,
2013-06-21 17:57:00,91.4,70.7,30.07,South,180,4.0,9.0,51,0.00,,,0.00,meteohub,2013-06-21 21:57:00,
2013-06-21 18:02:00,91.0,70.3,30.08,West,270,4.0,9.0,51,0.00,,,0.00,meteohub,2013-06-21 22:02:00,
2013-06-21 18:07:00,90.7,71.2,30.08,South,180,4.0,9.0,53,0.00,,,0.00,meteohub,2013-06-21 22:07:00,
2013-06-21 18:12:00,89.4,73.8,30.08,South,180,7.0,9.0,60,0.00,,,0.00,meteohub,2013-06-21 22:12:00,
2013-06-21 18:17:00,87.4,74.3,30.07,South,180,5.0,9.0,65,0.00,,,0.00,meteohub,2013-06-21 22:17:00,
2013-06-21 18:23:00,86.7,74.8,30.07,SE,135,7.0,8.0,68,0.00,,,0.00,meteohub,2013-06-21 22:23:00,
2013-06-21 18:28:00,86.2,75.2,30.07,SW,225,7.0,8.0,70,0.00,,,0.00,meteohub,2013-06-21 22:28:00,
2013-06-21 18:33:00,86.2,75.2,30.08,SW,225,8.0,8.0,70,0.00,,,0.00,meteohub,2013-06-21 22:33:00,
2013-06-21 18:38:00,86.0,75.0,30.09,South,180,4.0,8.0,70,0.00,,,0.00,meteohub,2013-06-21 22:38:00,
2013-06-21 18:43:00,85.8,74.8,30.09,SW,225,5.0,8.0,70,0.00,,,0.00,meteohub,2013-06-21 22:43:00,
2013-06-21 18:48:00,84.0,70.5,30.09,SW,225,8.0,15.0,64,0.00,,,0.00,meteohub,2013-06-21 22:48:00,
2013-06-21 18:53:00,83.5,70.0,30.09,West,270,4.0,15.0,64,0.00,,,0.00,meteohub,2013-06-21 22:53:00,
2013-06-21 18:58:00,83.7,70.7,30.09,SW,225,4.0,15.0,65,0.00,,,0.00,meteohub,2013-06-21 22:58:00,
2013-06-21 19:03:00,83.7,70.7,30.09,SW,225,6.0,11.0,65,0.00,,,0.00,meteohub,2013-06-21 23:03:00,
2013-06-21 19:09:00,83.3,69.4,30.10,North,0,4.0,8.0,63,0.00,,,0.00,meteohub,2013-06-21 23:09:00,
2013-06-21 19:14:00,82.0,70.3,30.10,North,0,5.0,8.0,68,0.00,,,0.00,meteohub,2013-06-21 23:14:00,
2013-06-21 19:19:00,81.0,69.8,30.11,North,0,8.0,10.0,69,0.00,,,0.00,meteohub,2013-06-21 23:19:00,
2013-06-21 19:24:00,80.6,70.7,30.11,North,0,10.0,14.0,72,0.00,,,0.00,meteohub,2013-06-21 23:24:00,
2013-06-21 19:29:00,80.2,71.6,30.10,North,0,7.0,14.0,75,0.00,,,0.00,meteohub,2013-06-21 23:29:00,
2013-06-21 19:34:00,79.7,71.4,30.10,NE,45,5.0,14.0,76,0.00,,,0.00,meteohub,2013-06-21 23:34:00,
2013-06-21 19:39:00,79.3,72.0,30.09,North,0,4.0,13.0,78,0.00,,,0.00,meteohub,2013-06-21 23:39:00,
2013-06-21 19:44:00,79.5,71.6,30.10,NW,315,4.0,11.0,77,0.00,,,0.00,meteohub,2013-06-21 23:44:00,
2013-06-21 19:50:00,79.3,71.1,30.09,NW,315,4.0,8.0,76,0.00,,,0.00,meteohub,2013-06-21 23:50:00,
2013-06-21 19:55:00,79.0,70.7,30.09,North,0,4.0,8.0,76,0.00,,,0.00,meteohub,2013-06-21 23:55:00,
2013-06-21 20:00:00,78.8,70.5,30.10,North,0,5.0,8.0,76,0.00,,,0.00,meteohub,2013-06-22 00:00:00,
2013-06-21 20:05:00,79.0,71.1,30.10,West,270,2.0,8.0,77,0.00,,,0.00,meteohub,2013-06-22 00:05:00,
2013-06-21 20:10:00,78.8,71.1,30.09,NE,45,2.0,8.0,77,0.00,,,0.00,meteohub,2013-06-22 00:10:00,
2013-06-21 20:15:00,78.6,70.9,30.08,NW,315,4.0,6.0,77,0.00,,,0.00,meteohub,2013-06-22 00:15:00,
2013-06-21 20:20:00,78.4,70.7,30.09,North,0,3.0,5.0,77,0.00,,,0.00,meteohub,2013-06-22 00:20:00,
2013-06-21 20:25:00,78.3,70.9,30.09,NW,315,2.0,4.0,78,0.00,,,0.00,meteohub,2013-06-22 00:25:00,
2013-06-21 20:30:00,78.3,70.5,30.09,North,0,2.0,4.0,77,0.00,,,0.00,meteohub,2013-06-22 00:30:00,
2013-06-21 20:36:00,78.1,70.3,30.09,North,0,2.0,3.0,77,0.00,,,0.00,meteohub,2013-06-22 00:36:00,
2013-06-21 20:41:00,77.9,70.2,30.09,North,0,3.0,3.0,77,0.00,,,0.00,meteohub,2013-06-22 00:41:00,
2013-06-21 20:46:00,77.9,70.5,30.09,NW,315,1.0,2.0,78,0.00,,,0.00,meteohub,2013-06-22 00:46:00,
2013-06-21 20:51:00,77.9,70.5,30.09,NW,315,0.0,4.0,78,0.00,,,0.00,meteohub,2013-06-22 00:51:00,
2013-06-21 20:56:00,77.7,70.3,30.10,NW,315,1.0,4.0,78,0.00,,,0.00,meteohub,2013-06-22 00:56:00,
2013-06-21 21:01:00,77.5,70.5,30.10,North,0,2.0,4.0,79,0.00,,,0.00,meteohub,2013-06-22 01:01:00,
2013-06-21 21:06:00,77.4,70.3,30.10,NW,315,2.0,2.0,79,0.00,,,0.00,meteohub,2013-06-22 01:06:00,
2013-06-21 21:11:00,77.4,70.3,30.10,NW,315,2.0,2.0,79,0.00,,,0.00,meteohub,2013-06-22 01:11:00,
2013-06-21 21:17:00,77.4,70.7,30.10,NW,315,2.0,2.0,80,0.00,,,0.00,meteohub,2013-06-22 01:17:00,
2013-06-21 21:22:00,77.4,70.7,30.11,NW,315,2.0,4.0,80,0.00,,,0.00,meteohub,2013-06-22 01:22:00,
2013-06-21 21:27:00,77.4,70.7,30.11,North,0,0.0,4.0,80,0.00,,,0.00,meteohub,2013-06-22 01:27:00,
2013-06-21 21:32:00,77.2,70.5,30.11,NE,45,3.0,4.0,80,0.00,,,0.00,meteohub,2013-06-22 01:32:00,
2013-06-21 21:37:00,77.2,70.9,30.11,North,0,3.0,3.0,81,0.00,,,0.00,meteohub,2013-06-22 01:37:00,
2013-06-21 21:42:00,77.2,70.9,30.11,North,0,2.0,3.0,81,0.00,,,0.00,meteohub,2013-06-22 01:42:00,
2013-06-21 21:47:00,77.0,71.1,30.11,NW,315,2.0,3.0,82,0.00,,,0.00,meteohub,2013-06-22 01:47:00,
2013-06-21 21:52:00,77.0,71.1,30.11,North,0,4.0,4.0,82,0.00,,,0.00,meteohub,2013-06-22 01:52:00,
2013-06-21 21:57:00,77.0,71.4,30.11,West,270,2.0,4.0,83,0.00,,,0.00,meteohub,2013-06-22 01:57:00,
2013-06-21 22:02:00,76.8,71.2,30.11,South,180,1.0,4.0,83,0.00,,,0.00,meteohub,2013-06-22 02:02:00,
2013-06-21 22:07:00,76.8,71.6,30.10,NW,315,2.0,4.0,84,0.00,,,0.00,meteohub,2013-06-22 02:07:00,
2013-06-21 22:12:00,76.6,71.4,30.11,West,270,2.0,3.0,84,0.00,,,0.00,meteohub,2013-06-22 02:12:00,
2013-06-21 22:17:00,76.5,71.2,30.10,North,0,2.0,3.0,84,0.00,,,0.00,meteohub,2013-06-22 02:17:00,
2013-06-21 22:22:00,76.6,71.4,30.10,NE,45,2.0,2.0,84,0.00,,,0.00,meteohub,2013-06-22 02:22:00,
2013-06-21 22:27:00,76.5,71.2,30.10,North,0,2.0,4.0,84,0.00,,,0.00,meteohub,2013-06-22 02:27:00,
2013-06-21 22:32:00,76.5,71.2,30.11,NE,45,2.0,4.0,84,0.00,,,0.00,meteohub,2013-06-22 02:32:00,
2013-06-21 22:37:00,76.5,71.6,30.11,North,0,2.0,4.0,85,0.00,,,0.00,meteohub,2013-06-22 02:37:00,
2013-06-21 22:42:00,76.5,71.6,30.11,NW,315,1.0,2.0,85,0.00,,,0.00,meteohub,2013-06-22 02:42:00,
2013-06-21 22:47:00,76.5,71.6,30.11,West,270,1.0,2.0,85,0.00,,,0.00,meteohub,2013-06-22 02:47:00,
2013-06-21 22:52:00,76.5,71.6,30.11,West,270,1.0,2.0,85,0.00,,,0.00,meteohub,2013-06-22 02:52:00,
2013-06-21 22:57:00,76.3,71.8,30.12,NE,45,2.0,2.0,86,0.00,,,0.00,meteohub,2013-06-22 02:57:00,
2013-06-21 23:02:00,76.3,72.1,30.12,NW,315,2.0,4.0,87,0.00,,,0.00,meteohub,2013-06-22 03:02:00,
2013-06-21 23:07:00,76.1,71.6,30.11,North,0,2.0,4.0,86,0.00,,,0.00,meteohub,2013-06-22 03:07:00,
2013-06-21 23:12:00,76.1,71.6,30.12,North,0,1.0,4.0,86,0.00,,,0.00,meteohub,2013-06-22 03:12:00,
2013-06-21 23:17:00,75.9,71.8,30.12,NW,315,2.0,2.0,87,0.00,,,0.00,meteohub,2013-06-22 03:17:00,
2013-06-21 23:22:00,75.9,72.1,30.12,NW,315,2.0,3.0,88,0.00,,,0.00,meteohub,2013-06-22 03:22:00,
2013-06-21 23:27:00,75.9,72.1,30.12,NW,315,2.0,3.0,88,0.00,,,0.00,meteohub,2013-06-22 03:27:00,
2013-06-21 23:32:00,75.9,72.1,30.12,NW,315,1.0,3.0,88,0.00,,,0.00,meteohub,2013-06-22 03:32:00,
2013-06-21 23:37:00,75.9,72.1,30.11,North,0,2.0,2.0,88,0.00,,,0.00,meteohub,2013-06-22 03:37:00,
2013-06-21 23:42:00,75.9,72.1,30.12,West,270,2.0,2.0,88,0.00,,,0.00,meteohub,2013-06-22 03:42:00,
2013-06-21 23:47:00,75.7,72.0,30.12,West,270,0.0,2.0,88,0.00,,,0.00,meteohub,2013-06-22 03:47:00,
2013-06-21 23:52:00,75.7,72.0,30.12,West,270,0.0,2.0,88,0.00,,,0.00,meteohub,2013-06-22 03:52:00,
2013-06-21 23:57:00,75.7,72.3,30.12,North,0,2.0,2.0,89,0.00,,,0.00,meteohub,2013-06-22 03:57:00,